Main page
METAR-TAF:

METAR-TAF

Airports :

London Southend Airport

London-Southend, England

latitude: 51-34N, longitude: 000-42E, elevation: 15 m

Current weather observation

The report was made 1 hour and 2 minutes ago, at 21:50 UTC
Wind 11 kt from the West/Southwest
Temperature 9°C
Humidity 81%
Pressure 1006 hPa
Visibility 10 km or more
no clouds below 1500 m and no cumulonimbus

METAR: EGMC 282150Z 25011KT CAVOK 09/06 Q1006

Time: 22:52 (22:52 UTC)

Forecast

The report was made 3 hours and 0 minutes ago, at 19:52 UTC
Forecast valid from 28 at 21 UTC to 29 at 06 UTC
Wind 11 kt from the Southwest
Visibility 10 km or more
Few clouds at a height of 4000 ft

TAF: EGMC 281952Z 2821/2906 22011KT 9999 FEW040

Weather observations and forecasts of more than 4000 airports (METAR and TAF reports).

The available stations are represented by yellow and red dots on the map.

Hover mouse over dot to see the name of the station.

Then click to see weather observations and forecasts.

To change the map : click on the green buttons with a black cross to zoom in, on the green button with a dash to zoom out, or on the green arrows for adjacent maps.


METAR-TAF: